Terminal Aerodrome Forecast
Issued by NWS

Current Version | Previous Version | Text Only | Print | Product List | Glossary On
Versions: 1 2 3 4 5 6 7 8 9 10 11 12 13 14
000
FTUS42 KJAX 242349
TAFVQQ
TAF
KVQQ 242349Z 2500/2524 09008KT P6SM SCT150 BKN250
     FM250800 VRB03KT P6SM BKN100
     FM251500 18010KT P6SM BKN035
     FM251800 23012G18KT P6SM VCTS SCT030CB BKN050=

USA.gov is the U.S. government's official web portal to all federal, state and local government web resources and services.